sensor_id;sensor_type;location;lat;lon;timestamp;pressure;altitude;pressure_sealevel;temperature;humidity
70521;BME280;58442;52.716;23.560;2022-12-29T00:01:25;101220.05;;;4.84;73.03
70521;BME280;58442;52.716;23.560;2022-12-29T00:03:27;101213.56;;;4.85;73.06
70521;BME280;58442;52.716;23.560;2022-12-29T00:05:28;101217.85;;;4.86;73.10
70521;BME280;58442;52.716;23.560;2022-12-29T00:07:29;101206.27;;;4.86;73.10
70521;BME280;58442;52.716;23.560;2022-12-29T00:09:33;101217.85;;;4.86;73.17
70521;BME280;58442;52.716;23.560;2022-12-29T00:11:34;101211.39;;;4.87;73.18
70521;BME280;58442;52.716;23.560;2022-12-29T00:13:35;101210.30;;;4.88;73.16
70521;BME280;58442;52.716;23.560;2022-12-29T00:15:48;101215.08;;;4.91;73.10
70521;BME280;58442;52.716;23.560;2022-12-29T00:17:49;101211.58;;;4.91;73.07
70521;BME280;58442;52.716;23.560;2022-12-29T00:19:50;101216.66;;;4.92;73.06
70521;BME280;58442;52.716;23.560;2022-12-29T00:22:03;101211.80;;;4.94;73.03
70521;BME280;58442;52.716;23.560;2022-12-29T00:24:21;101199.40;;;4.93;73.04
70521;BME280;58442;52.716;23.560;2022-12-29T00:26:34;101200.52;;;4.92;73.08
70521;BME280;58442;52.716;23.560;2022-12-29T00:28:50;101207.48;;;4.93;73.05
70521;BME280;58442;52.716;23.560;2022-12-29T00:31:09;101197.02;;;4.92;73.03
70521;BME280;58442;52.716;23.560;2022-12-29T00:33:30;101206.20;;;4.91;73.18
70521;BME280;58442;52.716;23.560;2022-12-29T00:35:53;101200.81;;;4.91;73.24
70521;BME280;58442;52.716;23.560;2022-12-29T00:37:58;101209.20;;;4.89;73.31
70521;BME280;58442;52.716;23.560;2022-12-29T00:40:16;101204.30;;;4.91;73.36
70521;BME280;58442;52.716;23.560;2022-12-29T00:42:37;101201.60;;;4.91;73.41
70521;BME280;58442;52.716;23.560;2022-12-29T00:44:59;101205.90;;;4.92;73.45
70521;BME280;58442;52.716;23.560;2022-12-29T00:47:00;101208.28;;;4.94;73.43
70521;BME280;58442;52.716;23.560;2022-12-29T00:49:07;101217.19;;;4.94;73.45
70521;BME280;58442;52.716;23.560;2022-12-29T00:51:20;101214.49;;;4.94;73.46
70521;BME280;58442;52.716;23.560;2022-12-29T00:53:21;101216.88;;;4.96;73.52
70521;BME280;58442;52.716;23.560;2022-12-29T00:55:22;101218.48;;;4.97;73.52
70521;BME280;58442;52.716;23.560;2022-12-29T00:57:23;101217.67;;;4.97;73.55
70521;BME280;58442;52.716;23.560;2022-12-29T00:59:25;101220.08;;;4.98;73.58
70521;BME280;58442;52.716;23.560;2022-12-29T01:01:29;101214.38;;;5.00;73.57
70521;BME280;58442;52.716;23.560;2022-12-29T01:03:30;101218.39;;;5.02;73.54
70521;BME280;58442;52.716;23.560;2022-12-29T01:05:36;101218.88;;;5.04;73.50
70521;BME280;58442;52.716;23.560;2022-12-29T01:07:37;101223.48;;;5.04;73.53
70521;BME280;58442;52.716;23.560;2022-12-29T01:09:44;101225.07;;;5.05;73.59
70521;BME280;58442;52.716;23.560;2022-12-29T01:12:07;101225.07;;;5.05;73.62
70521;BME280;58442;52.716;23.560;2022-12-29T01:14:08;101216.80;;;5.01;73.73
70521;BME280;58442;52.716;23.560;2022-12-29T01:16:09;101226.74;;;5.01;73.83
70521;BME280;58442;52.716;23.560;2022-12-29T01:18:10;101227.58;;;5.01;73.86
70521;BME280;58442;52.716;23.560;2022-12-29T01:20:20;101221.36;;;5.01;73.90
70521;BME280;58442;52.716;23.560;2022-12-29T01:22:21;101221.66;;;4.99;74.00
70521;BME280;58442;52.716;23.560;2022-12-29T01:24:23;101220.87;;;4.99;74.04
70521;BME280;58442;52.716;23.560;2022-12-29T01:26:26;101221.66;;;4.99;74.06
70521;BME280;58442;52.716;23.560;2022-12-29T01:28:35;101207.09;;;5.00;74.08
70521;BME280;58442;52.716;23.560;2022-12-29T01:30:40;101210.80;;;5.04;74.05
70521;BME280;58442;52.716;23.560;2022-12-29T01:32:41;101211.10;;;5.03;73.99
70521;BME280;58442;52.716;23.560;2022-12-29T01:34:42;101194.95;;;5.03;74.03
70521;BME280;58442;52.716;23.560;2022-12-29T01:36:52;101196.32;;;5.00;74.14
70521;BME280;58442;52.716;23.560;2022-12-29T01:38:53;101203.12;;;4.98;74.28
70521;BME280;58442;52.716;23.560;2022-12-29T01:40:54;101198.83;;;4.97;74.37
70521;BME280;58442;52.716;23.560;2022-12-29T01:42:55;101195.34;;;4.96;74.42
70521;BME280;58442;52.716;23.560;2022-12-29T01:45:02;101186.95;;;4.98;74.46
70521;BME280;58442;52.716;23.560;2022-12-29T01:47:03;101186.95;;;4.98;74.45
70521;BME280;58442;52.716;23.560;2022-12-29T01:51:16;101188.63;;;4.93;74.60
70521;BME280;58442;52.716;23.560;2022-12-29T01:53:27;101177.37;;;4.91;74.74
70521;BME280;58442;52.716;23.560;2022-12-29T01:55:32;101178.77;;;4.89;74.88
70521;BME280;58442;52.716;23.560;2022-12-29T01:57:38;101182.57;;;4.88;74.96
70521;BME280;58442;52.716;23.560;2022-12-29T01:59:51;101184.73;;;4.86;75.07
70521;BME280;58442;52.716;23.560;2022-12-29T02:01:55;101182.35;;;4.84;75.14
70521;BME280;58442;52.716;23.560;2022-12-29T02:03:56;101183.95;;;4.85;75.22
70521;BME280;58442;52.716;23.560;2022-12-29T02:06:02;101186.63;;;4.85;75.28
70521;BME280;58442;52.716;23.560;2022-12-29T02:08:05;101180.15;;;4.86;75.33
70521;BME280;58442;52.716;23.560;2022-12-29T02:10:10;101188.22;;;4.86;75.39
70521;BME280;58442;52.716;23.560;2022-12-29T02:12:11;101183.95;;;4.85;75.44
70521;BME280;58442;52.716;23.560;2022-12-29T02:14:13;101171.27;;;4.86;75.48
70521;BME280;58442;52.716;23.560;2022-12-29T02:25:41;101150.52;;;4.86;75.71
70521;BME280;58442;52.716;23.560;2022-12-29T02:35:14;101160.10;;;4.92;75.57
70521;BME280;58442;52.716;23.560;2022-12-29T02:37:24;101148.23;;;4.93;75.58
70521;BME280;58442;52.716;23.560;2022-12-29T02:46:53;101141.47;;;4.96;75.50
70521;BME280;58442;52.716;23.560;2022-12-29T02:49:15;101135.77;;;4.98;75.54
70521;BME280;58442;52.716;23.560;2022-12-29T02:51:30;101136.27;;;5.00;75.48
70521;BME280;58442;52.716;23.560;2022-12-29T02:53:34;101140.55;;;5.01;75.47
70521;BME280;58442;52.716;23.560;2022-12-29T02:55:49;101139.17;;;5.03;75.35
70521;BME280;58442;52.716;23.560;2022-12-29T03:11:56;101136.40;;;4.94;75.36
70521;BME280;58442;52.716;23.560;2022-12-29T03:16:53;101145.27;;;4.95;75.28
70521;BME280;58442;52.716;23.560;2022-12-29T03:21:12;101134.98;;;4.97;75.16
70521;BME280;58442;52.716;23.560;2022-12-29T03:23:16;101131.98;;;4.99;75.07
70521;BME280;58442;52.716;23.560;2022-12-29T03:25:25;101130.88;;;5.00;75.02
70521;BME280;58442;52.716;23.560;2022-12-29T03:27:33;101129.77;;;5.01;74.95
70521;BME280;58442;52.716;23.560;2022-12-29T03:29:40;101124.39;;;5.01;74.95
70521;BME280;58442;52.716;23.560;2022-12-29T03:31:45;101135.16;;;5.01;74.87
70521;BME280;58442;52.716;23.560;2022-12-29T03:33:48;101143.23;;;5.01;74.82
70521;BME280;58442;52.716;23.560;2022-12-29T03:35:55;101139.48;;;5.02;74.73
70521;BME280;58442;52.716;23.560;2022-12-29T03:38:05;101137.59;;;5.02;74.70
70521;BME280;58442;52.716;23.560;2022-12-29T03:40:09;101133.30;;;5.01;74.67
70521;BME280;58442;52.716;23.560;2022-12-29T03:42:14;101136.27;;;5.00;74.62
70521;BME280;58442;52.716;23.560;2022-12-29T03:44:16;101134.09;;;5.02;74.54
70521;BME280;58442;52.716;23.560;2022-12-29T03:46:17;101146.77;;;5.01;74.54
70521;BME280;58442;52.716;23.560;2022-12-29T03:48:20;101150.84;;;4.99;74.61
70521;BME280;58442;52.716;23.560;2022-12-29T03:50:21;101144.96;;;4.97;74.64
70521;BME280;58442;52.716;23.560;2022-12-29T03:52:22;101146.06;;;4.96;74.67
70521;BME280;58442;52.716;23.560;2022-12-29T03:54:24;101147.44;;;4.93;74.75
70521;BME280;58442;52.716;23.560;2022-12-29T03:56:35;101144.26;;;4.91;74.85
70521;BME280;58442;52.716;23.560;2022-12-29T03:58:36;101135.68;;;4.89;74.87
70521;BME280;58442;52.716;23.560;2022-12-29T04:00:37;101134.59;;;4.90;74.87
70521;BME280;58442;52.716;23.560;2022-12-29T04:02:38;101124.30;;;4.92;74.84
70521;BME280;58442;52.716;23.560;2022-12-29T04:04:39;101133.17;;;4.92;74.73
70521;BME280;58442;52.716;23.560;2022-12-29T04:06:40;101129.69;;;4.92;74.75
70521;BME280;58442;52.716;23.560;2022-12-29T04:08:41;101137.77;;;4.92;74.75
70521;BME280;58442;52.716;23.560;2022-12-29T04:10:45;101124.60;;;4.90;74.77
70521;BME280;58442;52.716;23.560;2022-12-29T04:12:46;101126.80;;;4.88;74.81
70521;BME280;58442;52.716;23.560;2022-12-29T04:14:47;101129.51;;;4.88;74.88
70521;BME280;58442;52.716;23.560;2022-12-29T04:16:48;101126.29;;;4.86;74.87
70521;BME280;58442;52.716;23.560;2022-12-29T04:18:49;101128.48;;;4.84;74.95
70521;BME280;58442;52.716;23.560;2022-12-29T04:20:50;101133.08;;;4.84;74.98
70521;BME280;58442;52.716;23.560;2022-12-29T04:23:01;101133.08;;;4.84;74.97
70521;BME280;58442;52.716;23.560;2022-12-29T04:25:02;101140.86;;;4.85;74.94
70521;BME280;58442;52.716;23.560;2022-12-29T04:27:04;101139.75;;;4.86;74.93
70521;BME280;58442;52.716;23.560;2022-12-29T04:29:05;101147.83;;;4.86;74.94
70521;BME280;58442;52.716;23.560;2022-12-29T04:31:06;101134.98;;;4.83;74.96
70521;BME280;58442;52.716;23.560;2022-12-29T04:33:09;101141.16;;;4.84;75.00
70521;BME280;58442;52.716;23.560;2022-12-29T04:35:10;101144.16;;;4.82;75.00
70521;BME280;58442;52.716;23.560;2022-12-29T04:37:11;101150.64;;;4.81;75.08
70521;BME280;58442;52.716;23.560;2022-12-29T04:39:12;101136.97;;;4.78;75.12
70521;BME280;58442;52.716;23.560;2022-12-29T04:41:13;101152.02;;;4.79;75.14
70521;BME280;58442;52.716;23.560;2022-12-29T04:43:14;101148.84;;;4.77;75.15
70521;BME280;58442;52.716;23.560;2022-12-29T04:45:17;101156.61;;;4.78;75.19
70521;BME280;58442;52.716;23.560;2022-12-29T04:47:18;101159.39;;;4.73;75.21
70521;BME280;58442;52.716;23.560;2022-12-29T04:49:19;101156.20;;;4.71;75.37
70521;BME280;58442;52.716;23.560;2022-12-29T04:51:20;101149.23;;;4.70;75.42
70521;BME280;58442;52.716;23.560;2022-12-29T04:53:21;101147.64;;;4.69;75.45
70521;BME280;58442;52.716;23.560;2022-12-29T04:55:22;101146.04;;;4.68;75.53
70521;BME280;58442;52.716;23.560;2022-12-29T04:57:23;101152.00;;;4.65;75.53
70521;BME280;58442;52.716;23.560;2022-12-29T04:59:24;101149.43;;;4.60;75.63
70521;BME280;58442;52.716;23.560;2022-12-29T05:01:28;101146.02;;;4.54;75.84
70521;BME280;58442;52.716;23.560;2022-12-29T05:03:29;101145.22;;;4.54;75.97
70521;BME280;58442;52.716;23.560;2022-12-29T05:05:30;101146.59;;;4.51;76.01
70521;BME280;58442;52.716;23.560;2022-12-29T05:07:31;101145.30;;;4.49;76.12
70521;BME280;58442;52.716;23.560;2022-12-29T05:09:43;101144.51;;;4.48;76.34
70521;BME280;58442;52.716;23.560;2022-12-29T05:11:44;101150.20;;;4.47;76.27
70521;BME280;58442;52.716;23.560;2022-12-29T05:13:45;101142.40;;;4.45;76.32
70521;BME280;58442;52.716;23.560;2022-12-29T05:15:51;101139.02;;;4.39;76.40
70521;BME280;58442;52.716;23.560;2022-12-29T05:20:19;101133.41;;;4.36;76.62
70521;BME280;58442;52.716;23.560;2022-12-29T05:22:20;101127.73;;;4.37;76.58
70521;BME280;58442;52.716;23.560;2022-12-29T05:24:22;101129.92;;;4.35;76.62
70521;BME280;58442;52.716;23.560;2022-12-29T05:26:23;101127.23;;;4.35;76.60
70521;BME280;58442;52.716;23.560;2022-12-29T05:28:34;101122.64;;;4.36;76.65
70521;BME280;58442;52.716;23.560;2022-12-29T05:30:35;101128.63;;;4.33;76.66
70521;BME280;58442;52.716;23.560;2022-12-29T05:32:36;101127.84;;;4.32;76.70
70521;BME280;58442;52.716;23.560;2022-12-29T05:34:37;101128.11;;;4.31;76.73
70521;BME280;58442;52.716;23.560;2022-12-29T05:36:49;101116.84;;;4.29;76.75
70521;BME280;58442;52.716;23.560;2022-12-29T05:38:51;101118.74;;;4.28;76.81
70521;BME280;58442;52.716;23.560;2022-12-29T05:40:52;101114.47;;;4.27;76.81
70521;BME280;58442;52.716;23.560;2022-12-29T05:42:53;101111.25;;;4.25;76.82
70521;BME280;58442;52.716;23.560;2022-12-29T05:45:05;101109.66;;;4.24;76.91
70521;BME280;58442;52.716;23.560;2022-12-29T05:47:07;101101.59;;;4.24;76.92
70521;BME280;58442;52.716;23.560;2022-12-29T05:49:08;101098.09;;;4.24;76.90
70521;BME280;58442;52.716;23.560;2022-12-29T05:51:09;101089.23;;;4.23;76.92
70521;BME280;58442;52.716;23.560;2022-12-29T05:53:19;101075.29;;;4.21;76.85
70521;BME280;58442;52.716;23.560;2022-12-29T05:55:20;101072.89;;;4.20;76.94
70521;BME280;58442;52.716;23.560;2022-12-29T05:57:21;101067.30;;;4.16;77.00
70521;BME280;58442;52.716;23.560;2022-12-29T05:59:22;101057.94;;;4.14;77.10
70521;BME280;58442;52.716;23.560;2022-12-29T06:01:34;101057.41;;;4.11;77.24
70521;BME280;58442;52.716;23.560;2022-12-29T06:03:35;101052.87;;;4.12;77.25
70521;BME280;58442;52.716;23.560;2022-12-29T06:05:36;101056.63;;;4.11;77.22
70521;BME280;58442;52.716;23.560;2022-12-29T06:07:37;101059.61;;;4.09;77.18
70521;BME280;58442;52.716;23.560;2022-12-29T06:09:49;101057.00;;;4.04;77.34
70521;BME280;58442;52.716;23.560;2022-12-29T06:11:50;101053.52;;;4.04;77.34
70521;BME280;58442;52.716;23.560;2022-12-29T06:13:51;101057.30;;;4.03;77.47
70521;BME280;58442;52.716;23.560;2022-12-29T06:15:52;101069.16;;;4.02;77.45
70521;BME280;58442;52.716;23.560;2022-12-29T06:17:53;101073.73;;;4.01;77.51
70521;BME280;58442;52.716;23.560;2022-12-29T06:19:54;101062.49;;;3.99;77.54
70521;BME280;58442;52.716;23.560;2022-12-29T06:21:55;101073.25;;;3.99;77.62
70521;BME280;58442;52.716;23.560;2022-12-29T06:23:58;101065.98;;;4.00;77.57
70521;BME280;58442;52.716;23.560;2022-12-29T06:26:00;101066.77;;;4.00;77.54
70521;BME280;58442;52.716;23.560;2022-12-29T06:28:03;101063.59;;;3.98;77.60
70521;BME280;58442;52.716;23.560;2022-12-29T06:30:06;101065.45;;;3.98;77.61
70521;BME280;58442;52.716;23.560;2022-12-29T06:32:13;101062.77;;;3.98;77.63
70521;BME280;58442;52.716;23.560;2022-12-29T06:34:14;101098.81;;;3.97;77.60
70521;BME280;58442;52.716;23.560;2022-12-29T06:36:16;101083.85;;;3.91;77.73
70521;BME280;58442;52.716;23.560;2022-12-29T06:38:17;101081.17;;;3.91;77.77
70521;BME280;58442;52.716;23.560;2022-12-29T06:40:29;101090.33;;;3.90;77.82
70521;BME280;58442;52.716;23.560;2022-12-29T06:42:30;101081.77;;;3.88;77.91
70521;BME280;58442;52.716;23.560;2022-12-29T06:44:31;101096.30;;;3.87;77.93
70521;BME280;58442;52.716;23.560;2022-12-29T06:46:32;101090.63;;;3.88;77.95
70521;BME280;58442;52.716;23.560;2022-12-29T06:48:43;101100.59;;;3.88;77.97
70521;BME280;58442;52.716;23.560;2022-12-29T06:50:44;101093.62;;;3.87;78.09
70521;BME280;58442;52.716;23.560;2022-12-29T06:52:45;101110.24;;;3.89;77.89
70521;BME280;58442;52.716;23.560;2022-12-29T06:54:46;101130.95;;;3.88;77.78
70521;BME280;58442;52.716;23.560;2022-12-29T06:56:47;101126.19;;;3.85;77.87
70521;BME280;58442;52.716;23.560;2022-12-29T06:58:49;101125.95;;;3.81;77.98
70521;BME280;58442;52.716;23.560;2022-12-29T07:00:50;101120.87;;;3.80;78.05
70521;BME280;58442;52.716;23.560;2022-12-29T07:02:55;101117.88;;;3.81;78.06
70521;BME280;58442;52.716;23.560;2022-12-29T07:04:56;101111.95;;;3.84;77.98
70521;BME280;58442;52.716;23.560;2022-12-29T07:06:57;101117.31;;;3.84;77.86
70521;BME280;58442;52.716;23.560;2022-12-29T07:08:58;101111.95;;;3.84;77.78
70521;BME280;58442;52.716;23.560;2022-12-29T07:11:08;101101.74;;;3.81;77.83
70521;BME280;58442;52.716;23.560;2022-12-29T07:13:09;101100.16;;;3.80;77.96
70521;BME280;58442;52.716;23.560;2022-12-29T07:15:10;101099.37;;;3.80;77.97
70521;BME280;58442;52.716;23.560;2022-12-29T07:17:11;101087.02;;;3.79;77.96
70521;BME280;58442;52.716;23.560;2022-12-29T07:19:23;101103.95;;;3.79;78.00
70521;BME280;58442;52.716;23.560;2022-12-29T07:21:24;101106.64;;;3.79;78.02
70521;BME280;58442;52.716;23.560;2022-12-29T07:23:25;101102.84;;;3.80;77.99
70521;BME280;58442;52.716;23.560;2022-12-29T07:25:26;101102.84;;;3.80;77.99
70521;BME280;58442;52.716;23.560;2022-12-29T07:27:38;101106.34;;;3.81;77.99
70521;BME280;58442;52.716;23.560;2022-12-29T07:29:39;101093.19;;;3.79;77.93
70521;BME280;58442;52.716;23.560;2022-12-29T07:31:40;101095.35;;;3.77;77.99
70521;BME280;58442;52.716;23.560;2022-12-29T07:33:41;101080.85;;;3.78;77.98
70521;BME280;58442;52.716;23.560;2022-12-29T07:35:53;101086.22;;;3.78;77.96
70521;BME280;58442;52.716;23.560;2022-12-29T07:37:54;101069.30;;;3.78;77.93
70521;BME280;58442;52.716;23.560;2022-12-29T07:39:55;101073.84;;;3.77;77.87
70521;BME280;58442;52.716;23.560;2022-12-29T07:41:56;101062.89;;;3.74;77.93
70521;BME280;58442;52.716;23.560;2022-12-29T07:43:57;101066.98;;;3.71;78.06
70521;BME280;58442;52.716;23.560;2022-12-29T07:45:58;101060.51;;;3.72;78.12
70521;BME280;58442;52.716;23.560;2022-12-29T07:47:59;101071.26;;;3.72;78.12
70521;BME280;58442;52.716;23.560;2022-12-29T07:50:03;101069.38;;;3.73;78.15
70521;BME280;58442;52.716;23.560;2022-12-29T07:52:04;101058.32;;;3.74;78.12
70521;BME280;58442;52.716;23.560;2022-12-29T07:54:06;101056.42;;;3.75;78.07
70521;BME280;58442;52.716;23.560;2022-12-29T07:56:07;101056.73;;;3.73;78.09
70521;BME280;58442;52.716;23.560;2022-12-29T07:58:17;101046.77;;;3.74;78.17
70521;BME280;58442;52.716;23.560;2022-12-29T08:00:19;101056.42;;;3.75;78.17
70521;BME280;58442;52.716;23.560;2022-12-29T08:02:20;101067.98;;;3.75;78.13
70521;BME280;58442;52.716;23.560;2022-12-29T08:04:22;101061.49;;;3.76;78.06
70521;BME280;58442;52.716;23.560;2022-12-29T08:06:33;101073.35;;;3.75;78.16
70521;BME280;58442;52.716;23.560;2022-12-29T08:08:34;101078.73;;;3.75;78.16
70521;BME280;58442;52.716;23.560;2022-12-29T08:10:35;101083.30;;;3.75;78.17
70521;BME280;58442;52.716;23.560;2022-12-29T08:12:37;101078.23;;;3.73;78.22
70521;BME280;58442;52.716;23.560;2022-12-29T08:14:48;101076.84;;;3.76;78.30
70521;BME280;58442;52.716;23.560;2022-12-29T08:16:49;101067.40;;;3.78;78.22
70521;BME280;58442;52.716;23.560;2022-12-29T08:18:50;101059.03;;;3.80;78.15
70521;BME280;58442;52.716;23.560;2022-12-29T08:20:51;101046.39;;;3.80;78.09
70521;BME280;58442;52.716;23.560;2022-12-29T08:22:52;101038.02;;;3.82;78.11
70521;BME280;58442;52.716;23.560;2022-12-29T08:24:53;101030.26;;;3.80;78.05
70521;BME280;58442;52.716;23.560;2022-12-29T08:26:54;101032.95;;;3.80;78.10
70521;BME280;58442;52.716;23.560;2022-12-29T08:28:57;101041.02;;;3.80;78.12
70521;BME280;58442;52.716;23.560;2022-12-29T08:31:00;101037.23;;;3.81;78.09
70521;BME280;58442;52.716;23.560;2022-12-29T08:33:01;101041.51;;;3.82;78.06
70521;BME280;58442;52.716;23.560;2022-12-29T08:35:03;101046.89;;;3.82;77.99
70521;BME280;58442;52.716;23.560;2022-12-29T08:37:12;101061.65;;;3.85;78.03
70521;BME280;58442;52.716;23.560;2022-12-29T08:39:13;101062.95;;;3.88;78.04
70521;BME280;58442;52.716;23.560;2022-12-29T08:41:14;101074.20;;;3.90;78.05
70521;BME280;58442;52.716;23.560;2022-12-29T08:43:15;101057.80;;;3.91;78.14
70521;BME280;58442;52.716;23.560;2022-12-29T08:45:16;101052.61;;;3.95;78.16
70521;BME280;58442;52.716;23.560;2022-12-29T08:47:17;101049.92;;;3.95;78.18
70521;BME280;58442;52.716;23.560;2022-12-29T08:49:18;101051.02;;;3.94;78.27
70521;BME280;58442;52.716;23.560;2022-12-29T08:51:22;101054.20;;;3.96;78.31
70521;BME280;58442;52.716;23.560;2022-12-29T08:53:23;101068.14;;;3.98;78.33
70521;BME280;58442;52.716;23.560;2022-12-29T08:55:24;101063.07;;;3.96;78.22
70521;BME280;58442;52.716;23.560;2022-12-29T08:57:25;101061.17;;;3.97;78.25
70521;BME280;58442;52.716;23.560;2022-12-29T08:59:37;101051.02;;;3.94;78.26
70521;BME280;58442;52.716;23.560;2022-12-29T09:01:38;101059.08;;;3.94;78.34
70521;BME280;58442;52.716;23.560;2022-12-29T09:03:41;101052.61;;;3.95;78.28
70521;BME280;58442;52.716;23.560;2022-12-29T09:05:42;101044.23;;;3.96;78.23
70521;BME280;58442;52.716;23.560;2022-12-29T09:07:52;101035.08;;;3.97;78.20
70521;BME280;58442;52.716;23.560;2022-12-29T09:09:53;101040.45;;;3.97;78.25
70521;BME280;58442;52.716;23.560;2022-12-29T09:11:54;101048.26;;;3.99;78.29
70521;BME280;58442;52.716;23.560;2022-12-29T09:13:55;101041.77;;;4.00;78.24
70521;BME280;58442;52.716;23.560;2022-12-29T09:16:07;101037.48;;;3.99;78.24
70521;BME280;58442;52.716;23.560;2022-12-29T09:18:09;101022.95;;;4.00;78.35
70521;BME280;58442;52.716;23.560;2022-12-29T09:20:16;101028.81;;;4.02;78.33
70521;BME280;58442;52.716;23.560;2022-12-29T09:22:17;101027.72;;;4.03;78.29
70521;BME280;58442;52.716;23.560;2022-12-29T09:24:22;101035.48;;;4.04;78.25
70521;BME280;58442;52.716;23.560;2022-12-29T09:26:23;101030.63;;;4.06;78.20
70521;BME280;58442;52.716;23.560;2022-12-29T09:28:24;101021.77;;;4.06;78.20
70521;BME280;58442;52.716;23.560;2022-12-29T09:31:56;101021.66;;;4.11;78.16
70521;BME280;58442;52.716;23.560;2022-12-29T09:33:57;101028.36;;;4.14;78.09
70521;BME280;58442;52.716;23.560;2022-12-29T09:35:58;101016.69;;;4.18;78.07
70521;BME280;58442;52.716;23.560;2022-12-29T09:37:59;101020.38;;;4.22;78.05
70521;BME280;58442;52.716;23.560;2022-12-29T09:40:00;101018.19;;;4.24;78.01
70521;BME280;58442;52.716;23.560;2022-12-29T09:46:35;101015.41;;;4.29;77.92
70521;BME280;58442;52.716;23.560;2022-12-29T09:48:52;101029.57;;;4.35;78.05
70521;BME280;58442;52.716;23.560;2022-12-29T09:50:58;101020.30;;;4.41;78.01
70521;BME280;58442;52.716;23.560;2022-12-29T09:53:10;101022.39;;;4.44;77.89
70521;BME280;58442;52.716;23.560;2022-12-29T09:55:21;101022.91;;;4.46;77.88
70521;BME280;58442;52.716;23.560;2022-12-29T09:59:41;101018.32;;;4.47;77.86
70521;BME280;58442;52.716;23.560;2022-12-29T10:01:53;101007.55;;;4.47;77.87
70521;BME280;58442;52.716;23.560;2022-12-29T10:03:57;100999.66;;;4.50;77.82
70521;BME280;58442;52.716;23.560;2022-12-29T10:19:40;101015.32;;;4.62;77.58
70521;BME280;58442;52.716;23.560;2022-12-29T10:24:12;100993.48;;;4.63;77.71
70521;BME280;58442;52.716;23.560;2022-12-29T10:26:27;100991.28;;;4.65;77.72
70521;BME280;58442;52.716;23.560;2022-12-29T10:28:35;100985.00;;;4.70;77.62
70521;BME280;58442;52.716;23.560;2022-12-29T10:30:39;100985.48;;;4.72;77.51
70521;BME280;58442;52.716;23.560;2022-12-29T10:32:50;100977.13;;;4.74;77.46
70521;BME280;58442;52.716;23.560;2022-12-29T10:34:57;100979.21;;;4.77;77.38
70521;BME280;58442;52.716;23.560;2022-12-29T10:37:11;100982.69;;;4.77;77.37
70521;BME280;58442;52.716;23.560;2022-12-29T10:39:21;100984.28;;;4.78;77.37
70521;BME280;58442;52.716;23.560;2022-12-29T10:43:45;100989.88;;;4.82;77.37
70521;BME280;58442;52.716;23.560;2022-12-29T10:45:47;100972.62;;;4.83;77.30
70521;BME280;58442;52.716;23.560;2022-12-29T10:48:03;100970.10;;;4.86;77.28
70521;BME280;58442;52.716;23.560;2022-12-29T10:50:07;100972.20;;;4.89;77.22
70521;BME280;58442;52.716;23.560;2022-12-29T10:52:09;100972.69;;;4.91;77.20
70521;BME280;58442;52.716;23.560;2022-12-29T10:54:16;100970.48;;;4.93;77.23
70521;BME280;58442;52.716;23.560;2022-12-29T10:56:33;100969.10;;;4.96;77.17
70521;BME280;58442;52.716;23.560;2022-12-29T10:58:35;100973.06;;;4.99;77.09
70521;BME280;58442;52.716;23.560;2022-12-29T11:00:36;100974.66;;;5.00;76.97
70521;BME280;58442;52.716;23.560;2022-12-29T11:07:08;100962.13;;;4.95;77.02
70521;BME280;58442;52.716;23.560;2022-12-29T11:09:21;100962.13;;;4.95;77.05
70521;BME280;58442;52.716;23.560;2022-12-29T11:11:34;100956.73;;;4.95;77.05
70521;BME280;58442;52.716;23.560;2022-12-29T11:15:49;100953.73;;;4.97;76.99
70521;BME280;58442;52.716;23.560;2022-12-29T11:17:57;100958.02;;;4.98;76.97
70521;BME280;58442;52.716;23.560;2022-12-29T11:22:23;100955.52;;;5.01;77.01
70521;BME280;58442;52.716;23.560;2022-12-29T11:29:22;100944.30;;;5.08;76.76
70521;BME280;58442;52.716;23.560;2022-12-29T11:31:23;100951.30;;;5.09;76.70
70521;BME280;58442;52.716;23.560;2022-12-29T11:33:30;100952.10;;;5.09;76.68
70521;BME280;58442;52.716;23.560;2022-12-29T11:35:44;100952.58;;;5.11;76.63
70521;BME280;58442;52.716;23.560;2022-12-29T11:37:42;100954.97;;;5.13;76.54
70521;BME280;58442;52.716;23.560;2022-12-29T11:39:53;100952.27;;;5.13;76.50
70521;BME280;58442;52.716;23.560;2022-12-29T11:41:58;100958.97;;;5.15;76.46
70521;BME280;58442;52.716;23.560;2022-12-29T11:44:02;100944.70;;;5.15;76.38
70521;BME280;58442;52.716;23.560;2022-12-29T11:46:06;100945.49;;;5.15;76.47
70521;BME280;58442;52.716;23.560;2022-12-29T11:48:23;100945.66;;;5.19;76.46
70521;BME280;58442;52.716;23.560;2022-12-29T11:50:31;100937.78;;;5.23;76.36
70521;BME280;58442;52.716;23.560;2022-12-29T11:52:35;100942.85;;;5.24;76.30
70521;BME280;58442;52.716;23.560;2022-12-29T11:54:39;100934.30;;;5.22;76.32
70521;BME280;58442;52.716;23.560;2022-12-29T11:56:42;100926.69;;;5.24;76.40
70521;BME280;58442;52.716;23.560;2022-12-29T11:58:44;100937.95;;;5.26;76.37
70521;BME280;58442;52.716;23.560;2022-12-29T12:00:46;100926.86;;;5.28;76.36
70521;BME280;58442;52.716;23.560;2022-12-29T12:07:28;100934.39;;;5.39;76.18
70521;BME280;58442;52.716;23.560;2022-12-29T12:09:44;100933.28;;;5.40;76.16
70521;BME280;58442;52.716;23.560;2022-12-29T12:11:46;100913.03;;;5.43;76.12
70521;BME280;58442;52.716;23.560;2022-12-29T12:16:09;100927.15;;;5.48;75.92
70521;BME280;58442;52.716;23.560;2022-12-29T12:22:43;100925.93;;;5.55;75.77
70521;BME280;58442;52.716;23.560;2022-12-29T12:25:03;100916.73;;;5.56;75.69
70521;BME280;58442;52.716;23.560;2022-12-29T12:27:22;100915.93;;;5.55;75.65
70521;BME280;58442;52.716;23.560;2022-12-29T12:29:32;100923.23;;;5.55;75.68
70521;BME280;58442;52.716;23.560;2022-12-29T12:33:54;100910.38;;;5.52;75.78